createdAt,value
2019-03-12T00:00:39.274Z,11.50
2019-03-12T00:01:39.255Z,12.70
2019-03-12T00:02:39.242Z,13.30
2019-03-12T00:03:39.273Z,12.50
2019-03-12T00:04:39.223Z,14.00
2019-03-12T00:05:39.211Z,12.00
2019-03-12T00:06:39.205Z,12.20
2019-03-12T00:07:39.189Z,12.60
2019-03-12T00:08:39.190Z,12.70
2019-03-12T00:09:39.166Z,12.40
2019-03-12T00:10:39.168Z,14.30
2019-03-12T00:11:39.149Z,13.50
2019-03-12T00:12:39.145Z,12.40
2019-03-12T00:13:39.249Z,12.70
2019-03-12T00:14:39.112Z,14.00
2019-03-12T00:15:39.111Z,12.70
2019-03-12T00:16:39.098Z,11.60
2019-03-12T00:17:39.084Z,11.60
2019-03-12T00:18:39.074Z,11.00
2019-03-12T00:19:39.117Z,13.40
2019-03-12T00:20:39.047Z,12.10
2019-03-12T00:21:39.035Z,12.90
2019-03-12T00:22:39.029Z,14.40
2019-03-12T00:23:39.017Z,13.30
2019-03-12T00:24:39.007Z,13.10
2019-03-12T00:25:39.035Z,12.80
2019-03-12T00:26:38.988Z,13.50
2019-03-12T00:27:38.969Z,11.60
2019-03-12T00:28:38.960Z,11.20
2019-03-12T00:29:38.949Z,13.90
2019-03-12T00:30:39.243Z,12.50
2019-03-12T00:31:38.928Z,13.70
2019-03-12T00:32:39.011Z,15.90
2019-03-12T00:33:38.909Z,14.30
2019-03-12T00:34:38.903Z,13.10
2019-03-12T00:35:38.927Z,13.20
2019-03-12T00:36:38.878Z,12.00
2019-03-12T00:37:38.876Z,12.60
2019-03-12T00:38:44.578Z,13.30
2019-03-12T00:39:38.844Z,12.30
2019-03-12T00:40:38.906Z,12.30
2019-03-12T00:41:38.824Z,13.40
2019-03-12T00:42:38.816Z,12.00
2019-03-12T00:43:38.804Z,12.20
2019-03-12T00:44:38.789Z,13.70
2019-03-12T00:45:38.778Z,13.10
2019-03-12T00:46:38.831Z,12.60
2019-03-12T00:47:38.778Z,13.80
2019-03-12T00:48:38.751Z,14.20
2019-03-12T00:49:38.736Z,12.10
2019-03-12T00:50:38.728Z,13.40
2019-03-12T00:51:38.714Z,11.80
2019-03-12T00:52:38.745Z,13.80
2019-03-12T00:53:38.692Z,15.30
2019-03-12T00:54:38.683Z,13.70
2019-03-12T00:55:38.677Z,13.30
2019-03-12T00:56:38.714Z,13.10
2019-03-12T00:57:38.646Z,14.20
2019-03-12T00:58:38.638Z,11.80
2019-03-12T00:59:38.628Z,12.20
2019-03-12T01:00:38.612Z,12.60
2019-03-12T01:01:38.661Z,14.00
2019-03-12T01:02:38.590Z,14.30
2019-03-12T01:03:38.586Z,13.70
2019-03-12T01:04:38.602Z,13.10
2019-03-12T01:05:38.557Z,11.60
2019-03-12T01:06:38.549Z,12.50
2019-03-12T01:07:38.577Z,13.60
2019-03-12T01:08:38.555Z,14.60
2019-03-12T01:09:38.522Z,14.40
2019-03-12T01:10:38.520Z,10.70
2019-03-12T01:11:38.496Z,13.20
2019-03-12T01:12:38.521Z,12.20
2019-03-12T01:13:38.540Z,15.00
2019-03-12T01:14:38.464Z,13.30
2019-03-12T01:15:38.453Z,12.60
2019-03-12T01:16:38.444Z,16.20
2019-03-12T01:17:38.467Z,12.60
2019-03-12T01:18:38.460Z,14.50
2019-03-12T01:19:38.420Z,14.30
2019-03-12T01:20:38.397Z,14.10
2019-03-12T01:21:38.389Z,14.60
2019-03-12T01:22:38.416Z,18.00
2019-03-12T01:23:38.402Z,14.30
2019-03-12T01:24:38.351Z,13.30
2019-03-12T01:25:38.343Z,14.80
2019-03-12T01:26:38.332Z,12.20
2019-03-12T01:27:38.322Z,14.60
2019-03-12T01:28:38.348Z,13.60
2019-03-12T01:29:38.299Z,13.10
2019-03-12T01:30:38.290Z,16.50
2019-03-12T01:31:38.274Z,14.80
2019-03-12T01:32:38.276Z,15.50
2019-03-12T01:33:38.298Z,13.20
2019-03-12T01:34:38.246Z,13.50
2019-03-12T01:35:38.234Z,14.30
2019-03-12T01:36:38.224Z,13.80
2019-03-12T01:37:38.214Z,14.30
2019-03-12T01:38:38.243Z,14.40
2019-03-12T01:39:38.271Z,12.90
2019-03-12T01:40:38.176Z,14.10
2019-03-12T01:41:38.169Z,14.00
2019-03-12T01:42:38.155Z,14.00
2019-03-12T01:43:38.189Z,13.40
2019-03-12T01:44:38.173Z,14.30
2019-03-12T01:45:38.135Z,13.00
2019-03-12T01:46:38.114Z,14.80
2019-03-12T01:47:38.104Z,13.00
2019-03-12T01:48:38.093Z,14.90
2019-03-12T01:49:38.121Z,12.90
2019-03-12T01:50:38.110Z,15.10
2019-03-12T01:51:38.064Z,15.60
2019-03-12T01:52:38.045Z,15.60
2019-03-12T01:53:38.035Z,15.90
2019-03-12T01:54:38.026Z,13.80
2019-03-12T01:55:38.073Z,14.10
2019-03-12T01:56:38.003Z,14.70
2019-03-12T01:57:37.994Z,14.10
2019-03-12T01:58:37.981Z,16.20
2019-03-12T01:59:37.976Z,16.90
2019-03-12T02:00:37.960Z,17.10
2019-03-12T02:01:37.992Z,16.00
2019-03-12T02:02:37.938Z,18.00
2019-03-12T02:03:37.933Z,15.90
2019-03-12T02:04:37.915Z,17.50
2019-03-12T02:05:37.905Z,16.70
2019-03-12T02:06:37.935Z,15.40
2019-03-12T02:07:37.883Z,17.00
2019-03-12T02:08:37.878Z,16.80
2019-03-12T02:09:37.865Z,17.90
2019-03-12T02:10:37.851Z,17.60
2019-03-12T02:11:37.881Z,17.10
2019-03-12T02:12:37.870Z,19.00
2019-03-12T02:13:37.819Z,17.50
2019-03-12T02:14:37.813Z,17.40
2019-03-12T02:15:37.796Z,17.90
2019-03-12T02:16:37.807Z,16.50
2019-03-12T02:17:37.791Z,16.40
2019-03-12T02:18:37.806Z,17.10
2019-03-12T02:19:37.758Z,17.50
2019-03-12T02:20:37.771Z,17.60
2019-03-12T02:21:37.740Z,16.70
2019-03-12T02:22:37.793Z,16.10
2019-03-12T02:23:37.762Z,17.50
2019-03-12T02:24:37.703Z,15.80
2019-03-12T02:25:37.691Z,16.80
2019-03-12T02:26:37.679Z,15.80
2019-03-12T02:27:37.707Z,18.40
2019-03-12T02:28:37.716Z,16.40
2019-03-12T02:29:37.644Z,18.50
2019-03-12T02:30:37.634Z,16.70
2019-03-12T02:31:37.639Z,18.00
2019-03-12T02:32:37.613Z,17.50
2019-03-12T02:33:37.601Z,17.30
2019-03-12T02:34:37.633Z,18.20
2019-03-12T02:35:37.586Z,19.20
2019-03-12T02:36:37.568Z,16.70
2019-03-12T02:37:37.584Z,19.70
2019-03-12T02:38:37.552Z,15.90
2019-03-12T02:39:37.557Z,19.50
2019-03-12T02:40:37.567Z,17.50
2019-03-12T02:41:37.513Z,18.90
2019-03-12T02:42:37.504Z,17.90
2019-03-12T02:43:37.496Z,17.60
2019-03-12T02:44:37.483Z,15.30
2019-03-12T02:45:37.513Z,18.60
2019-03-12T02:46:37.466Z,18.80
2019-03-12T02:47:37.452Z,18.80
2019-03-12T02:48:37.439Z,17.30
2019-03-12T02:49:37.433Z,20.50
2019-03-12T02:50:37.465Z,17.50
2019-03-12T02:51:37.406Z,18.20
2019-03-12T02:52:37.398Z,17.60
2019-03-12T02:53:37.384Z,18.90
2019-03-12T02:54:37.382Z,19.10
2019-03-12T02:55:37.369Z,20.80
2019-03-12T02:56:37.393Z,20.30
2019-03-12T02:57:37.418Z,18.40
2019-03-12T02:58:37.329Z,21.20
2019-03-12T02:59:37.326Z,19.70
2019-03-12T03:00:37.314Z,18.30
2019-03-12T03:01:37.300Z,18.40
2019-03-12T03:02:37.289Z,17.40
2019-03-12T03:03:37.353Z,18.90
2019-03-12T03:04:37.265Z,18.30
2019-03-12T03:05:37.259Z,18.00
2019-03-12T03:06:37.269Z,17.90
2019-03-12T03:07:37.236Z,18.50
2019-03-12T03:08:37.225Z,16.70
2019-03-12T03:09:37.218Z,17.30
2019-03-12T03:10:37.215Z,18.70
2019-03-12T03:11:37.219Z,17.50
2019-03-12T03:12:37.182Z,18.40
2019-03-12T03:13:37.208Z,18.90
2019-03-12T03:14:37.161Z,20.10
2019-03-12T03:15:37.144Z,21.20
2019-03-12T03:16:37.212Z,17.90
2019-03-12T03:17:37.132Z,19.50
2019-03-12T03:18:37.112Z,19.10
2019-03-12T03:19:37.106Z,19.20
2019-03-12T03:20:37.102Z,21.40
2019-03-12T03:21:37.086Z,17.60
2019-03-12T03:22:37.111Z,20.90
2019-03-12T03:23:37.129Z,21.10
2019-03-12T03:24:37.047Z,17.90
2019-03-12T03:25:37.093Z,18.30
2019-03-12T03:26:37.048Z,18.60
2019-03-12T03:27:37.027Z,18.90
2019-03-12T03:28:37.014Z,20.80
2019-03-12T03:29:37.004Z,21.00
2019-03-12T03:30:36.984Z,20.10
2019-03-12T03:31:37.014Z,18.90
2019-03-12T03:32:36.989Z,24.10
2019-03-12T03:33:36.979Z,21.90
2019-03-12T03:34:36.938Z,21.90
2019-03-12T03:35:36.941Z,23.50
2019-03-12T03:36:36.985Z,20.60
2019-03-12T03:37:36.908Z,20.30
2019-03-12T03:38:36.937Z,17.50
2019-03-12T03:39:36.889Z,21.00
2019-03-12T03:40:36.900Z,18.20
2019-03-12T03:41:36.873Z,20.10
2019-03-12T03:42:36.858Z,19.40
2019-03-12T03:43:36.884Z,19.70
2019-03-12T03:44:36.837Z,18.40
2019-03-12T03:45:36.825Z,18.50
2019-03-12T03:46:36.809Z,18.20
2019-03-12T03:47:36.871Z,17.70
2019-03-12T03:48:36.786Z,19.00
2019-03-12T03:49:36.782Z,18.40
2019-03-12T03:50:44.650Z,18.10
2019-03-12T03:51:36.782Z,17.80
2019-03-12T03:52:36.782Z,19.00
2019-03-12T03:53:36.736Z,20.20
2019-03-12T03:54:36.724Z,16.70
2019-03-12T03:55:36.716Z,17.30
2019-03-12T03:56:36.702Z,17.30
2019-03-12T03:57:36.695Z,17.70
2019-03-12T03:58:36.722Z,18.00
2019-03-12T03:59:36.667Z,20.80
2019-03-12T04:00:36.662Z,18.00
2019-03-12T04:01:36.648Z,21.40
2019-03-12T04:02:36.634Z,19.20
2019-03-12T04:03:36.653Z,17.70
2019-03-12T04:04:36.686Z,19.90
2019-03-12T04:05:37.152Z,19.60
2019-03-12T04:06:36.711Z,15.50
2019-03-12T04:07:36.584Z,18.00
2019-03-12T04:08:36.568Z,19.90
2019-03-12T04:09:36.593Z,17.00
2019-03-12T04:10:36.549Z,16.90
2019-03-12T04:11:36.549Z,19.00
2019-03-12T04:12:36.536Z,18.70
2019-03-12T04:13:36.529Z,17.60
2019-03-12T04:14:36.545Z,16.80
2019-03-12T04:15:36.495Z,15.70
2019-03-12T04:16:36.481Z,18.60
2019-03-12T04:17:36.499Z,18.20
2019-03-12T04:18:36.468Z,16.80
2019-03-12T04:19:36.490Z,18.90
2019-03-12T04:20:36.481Z,17.30
2019-03-12T04:21:36.429Z,19.60
2019-03-12T04:22:36.415Z,18.30
2019-03-12T04:23:36.412Z,17.50
2019-03-12T04:24:36.397Z,18.30
2019-03-12T04:25:36.429Z,19.00
2019-03-12T04:26:36.381Z,15.40
2019-03-12T04:27:36.411Z,16.40
2019-03-12T04:28:36.355Z,17.70
2019-03-12T04:29:36.343Z,15.40
2019-03-12T04:30:36.329Z,16.40
2019-03-12T04:31:36.321Z,14.50
2019-03-12T04:32:36.326Z,16.80
2019-03-12T04:33:36.298Z,15.80
2019-03-12T04:34:36.325Z,17.20
2019-03-12T04:35:36.273Z,14.20
2019-03-12T04:36:36.266Z,16.70
2019-03-12T04:37:36.251Z,15.80
2019-03-12T04:38:36.245Z,14.60
2019-03-12T04:39:36.273Z,14.60
2019-03-12T04:40:36.260Z,15.90
2019-03-12T04:41:36.207Z,16.90
2019-03-12T04:42:36.201Z,16.20
2019-03-12T04:43:36.187Z,16.10
2019-03-12T04:44:36.183Z,15.40
2019-03-12T04:45:36.186Z,17.60
2019-03-12T04:46:36.179Z,14.90
2019-03-12T04:47:36.208Z,14.00
2019-03-12T04:48:36.132Z,14.80
2019-03-12T04:49:36.123Z,16.00
2019-03-12T04:50:36.191Z,15.40
2019-03-12T04:51:36.099Z,13.90
2019-03-12T04:52:36.092Z,15.90
2019-03-12T04:53:37.618Z,17.50
2019-03-12T04:54:36.074Z,14.70
2019-03-12T04:55:36.056Z,14.90
2019-03-12T04:56:36.087Z,18.10
2019-03-12T04:57:36.034Z,20.60
2019-03-12T04:58:36.035Z,15.20
2019-03-12T04:59:36.017Z,16.30
2019-03-12T05:00:36.006Z,12.40
2019-03-12T05:01:36.035Z,13.60
2019-03-12T05:02:35.986Z,15.70
2019-03-12T05:03:35.967Z,15.50
2019-03-12T05:04:35.957Z,13.70
2019-03-12T05:05:35.946Z,14.90
2019-03-12T05:06:35.989Z,14.30
2019-03-12T05:07:35.923Z,16.70
2019-03-12T05:08:35.914Z,14.60
2019-03-12T05:09:35.908Z,16.90
2019-03-12T05:10:35.897Z,14.80
2019-03-12T05:11:35.892Z,13.10
2019-03-12T05:12:35.900Z,15.50
2019-03-12T05:13:35.867Z,15.00
2019-03-12T05:14:35.846Z,14.00
2019-03-12T05:15:35.841Z,16.20
2019-03-12T05:16:35.825Z,15.50
2019-03-12T05:17:35.875Z,12.60
2019-03-12T05:18:35.809Z,15.00
2019-03-12T05:19:35.834Z,11.50
2019-03-12T05:20:35.783Z,12.50
2019-03-12T05:21:35.779Z,13.00
2019-03-12T05:22:35.834Z,12.20
2019-03-12T05:23:35.748Z,12.20
2019-03-12T05:24:35.740Z,11.10
2019-03-12T05:25:35.727Z,12.50
2019-03-12T05:26:35.716Z,10.50
2019-03-12T05:27:35.721Z,10.30
2019-03-12T05:28:35.747Z,14.30
2019-03-12T05:29:35.701Z,10.70
2019-03-12T05:30:35.678Z,11.50
2019-03-12T05:31:35.663Z,13.30
2019-03-12T05:32:35.656Z,12.10
2019-03-12T05:33:35.682Z,12.70
2019-03-12T05:34:35.631Z,12.40
2019-03-12T05:35:35.623Z,13.10
2019-03-12T05:36:35.614Z,11.60
2019-03-12T05:37:35.602Z,10.50
2019-03-12T05:38:35.590Z,11.70
2019-03-12T05:39:35.616Z,12.10
2019-03-12T05:40:35.609Z,12.30
2019-03-12T05:41:35.553Z,10.50
2019-03-12T05:42:35.544Z,10.80
2019-03-12T05:43:35.542Z,11.70
2019-03-12T05:44:35.527Z,10.50
2019-03-12T05:45:35.550Z,9.20
2019-03-12T05:46:35.526Z,12.20
2019-03-12T05:47:35.494Z,13.20
2019-03-12T05:48:35.482Z,10.00
2019-03-12T05:49:35.471Z,9.60
2019-03-12T05:50:35.511Z,11.60
2019-03-12T05:51:35.451Z,11.00
2019-03-12T05:52:35.441Z,11.10
2019-03-12T05:53:35.423Z,12.90
2019-03-12T05:54:35.413Z,10.10
2019-03-12T05:55:35.399Z,12.20
2019-03-12T05:56:35.429Z,14.40
2019-03-12T05:57:35.380Z,11.80
2019-03-12T05:58:35.372Z,11.80
2019-03-12T05:59:35.357Z,13.70
2019-03-12T06:00:35.349Z,10.60
2019-03-12T06:01:35.411Z,12.10
2019-03-12T06:02:35.323Z,11.10
2019-03-12T06:03:35.320Z,13.80
2019-03-12T06:04:35.310Z,9.70
2019-03-12T06:05:35.298Z,12.00
2019-03-12T06:06:35.280Z,12.80
2019-03-12T06:07:35.299Z,9.60
2019-03-12T06:08:35.348Z,11.70
2019-03-12T06:09:35.250Z,9.10
2019-03-12T06:10:35.238Z,11.00
2019-03-12T06:11:35.233Z,9.00
2019-03-12T06:12:35.719Z,9.90
2019-03-12T06:13:35.247Z,13.80
2019-03-12T06:14:36.168Z,10.50
2019-03-12T06:15:35.187Z,11.60
2019-03-12T06:16:35.171Z,11.60
2019-03-12T06:17:35.166Z,10.20
2019-03-12T06:18:35.172Z,10.20
2019-03-12T06:19:35.139Z,10.40
2019-03-12T06:20:35.132Z,12.50
2019-03-12T06:21:35.120Z,12.00
2019-03-12T06:22:35.110Z,10.30
2019-03-12T06:23:35.096Z,11.70
2019-03-12T06:24:35.126Z,9.60
2019-03-12T06:25:35.073Z,11.60
2019-03-12T06:26:35.061Z,11.50
2019-03-12T06:27:35.101Z,9.90
2019-03-12T06:28:35.046Z,12.40
2019-03-12T06:29:35.030Z,12.60
2019-03-12T06:30:35.061Z,12.20
2019-03-12T06:31:35.022Z,8.70
2019-03-12T06:32:35.003Z,9.00
2019-03-12T06:33:35.062Z,10.80
2019-03-12T06:34:34.974Z,10.40
2019-03-12T06:35:34.968Z,10.40
2019-03-12T06:36:34.963Z,10.60
2019-03-12T06:37:34.948Z,10.10
2019-03-12T06:38:34.933Z,9.40
2019-03-12T06:39:34.942Z,15.60
2019-03-12T06:40:34.912Z,12.10
2019-03-12T06:41:34.899Z,10.30
2019-03-12T06:42:34.887Z,11.30
2019-03-12T06:43:34.884Z,9.80
2019-03-12T06:44:34.908Z,13.80
2019-03-12T06:45:34.855Z,14.10
2019-03-12T06:46:34.844Z,9.30
2019-03-12T06:47:34.834Z,11.50
2019-03-12T06:48:34.821Z,13.50
2019-03-12T06:49:34.839Z,11.40
2019-03-12T06:50:34.814Z,13.40
2019-03-12T06:51:34.790Z,10.40
2019-03-12T06:52:34.779Z,10.10
2019-03-12T06:53:34.772Z,11.00
2019-03-12T06:54:34.758Z,11.50
2019-03-12T06:55:34.784Z,12.20
2019-03-12T06:56:34.738Z,10.80
2019-03-12T06:57:34.727Z,13.50
2019-03-12T06:58:34.721Z,16.10
2019-03-12T06:59:34.709Z,13.40
2019-03-12T07:00:34.699Z,11.90
2019-03-12T07:01:34.701Z,12.60
2019-03-12T07:02:34.672Z,11.50
2019-03-12T07:03:34.665Z,12.20
2019-03-12T07:04:34.653Z,12.90
2019-03-12T07:05:34.647Z,12.30
2019-03-12T07:06:34.701Z,14.60
2019-03-12T07:07:34.642Z,17.40
2019-03-12T07:08:34.621Z,14.60
2019-03-12T07:09:34.596Z,13.10
2019-03-12T07:10:34.588Z,12.60
2019-03-12T07:11:34.575Z,12.50
2019-03-12T07:12:36.774Z,14.90
2019-03-12T07:13:34.569Z,12.30
2019-03-12T07:14:34.539Z,12.70
2019-03-12T07:15:34.534Z,13.20
2019-03-12T07:16:34.521Z,16.90
2019-03-12T07:17:34.583Z,14.50
2019-03-12T07:18:34.499Z,14.30
2019-03-12T07:19:34.485Z,12.20
2019-03-12T07:20:34.493Z,10.80
2019-03-12T07:21:34.470Z,12.40
2019-03-12T07:22:34.452Z,13.10
2019-03-12T07:23:34.481Z,14.10
2019-03-12T07:24:34.430Z,14.00
2019-03-12T07:25:34.430Z,16.90
2019-03-12T07:26:34.411Z,14.80
2019-03-12T07:27:34.396Z,15.00
2019-03-12T07:28:34.428Z,12.50
2019-03-12T07:29:34.482Z,13.20
2019-03-12T07:30:34.370Z,13.90
2019-03-12T07:31:34.354Z,13.90
2019-03-12T07:32:34.348Z,14.00
2019-03-12T07:33:34.388Z,15.40
2019-03-12T07:34:36.892Z,14.90
2019-03-12T07:35:34.316Z,12.00
2019-03-12T07:36:34.304Z,15.10
2019-03-12T07:37:34.294Z,14.60
2019-03-12T07:38:34.284Z,16.00
2019-03-12T07:39:34.326Z,13.30
2019-03-12T07:40:34.274Z,17.50
2019-03-12T07:41:34.256Z,14.30
2019-03-12T07:42:34.238Z,13.90
2019-03-12T07:43:34.251Z,13.10
2019-03-12T07:44:34.219Z,16.40
2019-03-12T07:45:34.217Z,16.40
2019-03-12T07:46:34.197Z,15.70
2019-03-12T07:47:36.056Z,15.30
2019-03-12T07:48:34.169Z,12.00
2019-03-12T07:49:34.165Z,14.90
2019-03-12T07:50:34.189Z,16.90
2019-03-12T07:51:34.147Z,15.80
2019-03-12T07:52:34.132Z,15.40
2019-03-12T07:53:34.118Z,23.00
2019-03-12T07:54:34.105Z,15.10
2019-03-12T07:55:34.203Z,16.80
2019-03-12T07:56:34.087Z,15.90
2019-03-12T07:57:34.072Z,16.70
2019-03-12T07:58:36.099Z,15.00
2019-03-12T07:59:34.056Z,17.10
2019-03-12T08:00:34.045Z,13.20
2019-03-12T08:01:34.044Z,13.10
2019-03-12T08:02:34.022Z,16.50
2019-03-12T08:03:34.025Z,11.60
2019-03-12T08:04:33.995Z,13.40
2019-03-12T08:05:33.987Z,14.60
2019-03-12T08:06:34.054Z,17.90
2019-03-12T08:07:33.971Z,14.10
2019-03-12T08:08:33.953Z,15.80
2019-03-12T08:09:33.968Z,18.20
2019-03-12T08:10:34.070Z,15.10
2019-03-12T08:11:34.019Z,17.10
2019-03-12T08:12:34.482Z,17.20
2019-03-12T08:13:33.918Z,16.30
2019-03-12T08:14:33.902Z,16.40
2019-03-12T08:15:33.882Z,14.00
2019-03-12T08:16:33.936Z,28.70
2019-03-12T08:17:33.897Z,14.80
2019-03-12T08:18:35.536Z,13.90
2019-03-12T08:19:33.919Z,16.50
2019-03-12T08:20:33.851Z,13.30
2019-03-12T08:21:33.817Z,13.20
2019-03-12T08:22:33.861Z,11.30
2019-03-12T08:23:33.791Z,16.10
2019-03-12T08:24:33.779Z,13.40
2019-03-12T08:25:33.783Z,16.00
2019-03-12T08:26:34.688Z,13.80
2019-03-12T08:27:33.802Z,17.60
2019-03-12T08:28:33.737Z,16.00
2019-03-12T08:29:33.729Z,18.20
2019-03-12T08:30:33.715Z,15.80
2019-03-12T08:31:33.704Z,16.20
2019-03-12T08:32:33.709Z,16.90
2019-03-12T08:33:35.387Z,21.70
2019-03-12T08:34:33.673Z,13.50
2019-03-12T08:35:33.662Z,14.50
2019-03-12T08:36:33.655Z,15.20
2019-03-12T08:37:33.642Z,14.80
2019-03-12T08:38:33.670Z,13.70
2019-03-12T08:39:33.623Z,15.50
2019-03-12T08:40:33.607Z,12.20
2019-03-12T08:41:33.602Z,11.30
2019-03-12T08:42:33.590Z,12.70
2019-03-12T08:43:33.648Z,15.50
2019-03-12T08:44:37.440Z,12.50
2019-03-12T08:45:34.550Z,12.30
2019-03-12T08:46:33.546Z,13.30
2019-03-12T08:47:33.534Z,14.80
2019-03-12T08:48:33.560Z,14.60
2019-03-12T08:49:34.922Z,14.80
2019-03-12T08:50:33.497Z,13.10
2019-03-12T08:51:33.505Z,12.90
2019-03-12T08:52:33.474Z,17.00
2019-03-12T08:53:33.471Z,19.00
2019-03-12T08:54:33.477Z,17.60
2019-03-12T08:55:33.444Z,12.50
2019-03-12T08:56:33.473Z,13.70
2019-03-12T08:57:33.428Z,14.20
2019-03-12T08:58:33.409Z,16.50
2019-03-12T08:59:33.440Z,12.10
2019-03-12T09:00:33.391Z,10.30
2019-03-12T09:01:33.392Z,12.10
2019-03-12T09:02:33.393Z,12.20
2019-03-12T09:03:33.360Z,12.00
2019-03-12T09:04:33.388Z,11.50
2019-03-12T09:05:33.338Z,12.40
2019-03-12T09:06:33.321Z,13.30
2019-03-12T09:07:33.324Z,10.90
2019-03-12T09:08:33.320Z,10.30
2019-03-12T09:09:33.335Z,8.80
2019-03-12T09:10:33.278Z,10.90
2019-03-12T09:11:33.336Z,10.90
2019-03-12T09:12:33.262Z,11.20
2019-03-12T09:13:33.245Z,10.00
2019-03-12T09:14:33.237Z,11.50
2019-03-12T09:15:33.277Z,9.40
2019-03-12T09:16:33.215Z,10.70
2019-03-12T09:17:33.237Z,11.90
2019-03-12T09:18:33.198Z,11.50
2019-03-12T09:19:33.205Z,11.80
2019-03-12T09:20:33.182Z,11.30
2019-03-12T09:21:33.163Z,16.60
2019-03-12T09:22:33.176Z,10.60
2019-03-12T09:23:33.149Z,10.40
2019-03-12T09:24:33.133Z,10.70
2019-03-12T09:25:33.192Z,10.80
2019-03-12T09:26:33.175Z,9.10
2019-03-12T09:27:33.093Z,10.10
2019-03-12T09:28:33.085Z,10.00
2019-03-12T09:29:33.108Z,8.80
2019-03-12T09:30:33.065Z,9.40
2019-03-12T09:31:33.089Z,10.40
2019-03-12T09:32:33.041Z,10.80
2019-03-12T09:33:33.030Z,10.00
2019-03-12T09:34:33.022Z,9.70
2019-03-12T09:35:33.062Z,6.60
2019-03-12T09:36:33.049Z,13.70
2019-03-12T09:37:32.984Z,11.50
2019-03-12T09:38:32.971Z,9.50
2019-03-12T09:39:32.966Z,8.20
2019-03-12T09:40:32.952Z,9.00
2019-03-12T09:41:32.948Z,6.50
2019-03-12T09:42:33.006Z,7.90
2019-03-12T09:43:32.924Z,7.60
2019-03-12T09:44:32.906Z,7.00
2019-03-12T09:45:32.904Z,11.00
2019-03-12T09:46:32.885Z,5.20
2019-03-12T09:47:32.878Z,7.50
2019-03-12T09:48:32.956Z,6.70
2019-03-12T09:49:32.853Z,7.00
2019-03-12T09:50:32.841Z,8.40
2019-03-12T09:51:32.834Z,7.20
2019-03-12T09:52:32.819Z,7.30
2019-03-12T09:53:32.883Z,8.20
2019-03-12T09:54:32.817Z,6.70
2019-03-12T09:55:32.788Z,8.00
2019-03-12T09:56:32.777Z,8.40
2019-03-12T09:57:32.792Z,6.40
2019-03-12T09:58:32.757Z,11.40
2019-03-12T09:59:32.763Z,9.50
2019-03-12T10:00:32.728Z,8.00
2019-03-12T10:01:32.722Z,6.60
2019-03-12T10:02:32.715Z,6.70
2019-03-12T10:03:32.698Z,5.90
2019-03-12T10:04:32.726Z,8.90
2019-03-12T10:05:32.692Z,5.30
2019-03-12T10:06:32.670Z,6.40
2019-03-12T10:07:32.733Z,5.80
2019-03-12T10:08:32.641Z,5.40
2019-03-12T10:09:32.672Z,9.30
2019-03-12T10:10:32.620Z,9.70
2019-03-12T10:11:32.617Z,6.90
2019-03-12T10:12:32.599Z,4.90
2019-03-12T10:13:32.588Z,5.50
2019-03-12T10:14:32.635Z,5.50
2019-03-12T10:15:32.661Z,5.20
2019-03-12T10:16:32.551Z,5.00
2019-03-12T10:17:32.570Z,5.00
2019-03-12T10:18:32.530Z,3.30
2019-03-12T10:19:32.522Z,4.90
2019-03-12T10:20:32.553Z,6.00
2019-03-12T10:21:32.494Z,5.30
2019-03-12T10:22:32.493Z,5.80
2019-03-12T10:23:32.476Z,6.10
2019-03-12T10:24:32.463Z,5.10
2019-03-12T10:25:32.494Z,11.70
2019-03-12T10:26:32.443Z,12.10
2019-03-12T10:27:32.429Z,4.30
2019-03-12T10:28:32.482Z,4.90
2019-03-12T10:29:32.462Z,6.00
2019-03-12T10:30:32.453Z,4.50
2019-03-12T10:31:32.442Z,5.00
2019-03-12T10:32:32.387Z,4.70
2019-03-12T10:33:32.372Z,4.20
2019-03-12T10:34:32.355Z,3.70
2019-03-12T10:35:32.460Z,4.30
2019-03-12T10:36:32.390Z,4.30
2019-03-12T10:37:32.327Z,5.60
2019-03-12T10:38:32.332Z,3.80
2019-03-12T10:39:32.320Z,5.70
2019-03-12T10:40:32.292Z,5.00
2019-03-12T10:41:32.398Z,4.20
2019-03-12T10:42:32.262Z,5.40
2019-03-12T10:43:32.251Z,5.80
2019-03-12T10:44:32.260Z,4.30
2019-03-12T10:45:32.232Z,6.90
2019-03-12T10:46:32.259Z,3.90
2019-03-12T10:47:32.210Z,5.90
2019-03-12T10:48:32.203Z,7.70
2019-03-12T10:49:37.291Z,4.40
2019-03-12T10:50:33.176Z,5.80
2019-03-12T10:51:32.256Z,7.50
2019-03-12T10:52:32.153Z,6.40
2019-03-12T10:53:32.149Z,8.80
2019-03-12T10:54:32.133Z,5.20
2019-03-12T10:55:32.142Z,4.20
2019-03-12T10:56:32.108Z,6.60
2019-03-12T10:57:32.140Z,5.70
2019-03-12T10:58:32.094Z,4.40
2019-03-12T10:59:32.079Z,7.00
2019-03-12T11:00:32.065Z,10.30
2019-03-12T11:01:32.056Z,4.60
2019-03-12T11:02:32.147Z,3.30
2019-03-12T11:03:32.044Z,3.50
2019-03-12T11:04:32.030Z,5.10
2019-03-12T11:05:44.961Z,3.50
2019-03-12T11:06:33.011Z,4.60
2019-03-12T11:07:32.106Z,7.40
2019-03-12T11:08:32.037Z,4.70
2019-03-12T11:09:31.975Z,7.00
2019-03-12T11:10:31.978Z,5.50
2019-03-12T11:11:31.943Z,5.20
2019-03-12T11:12:31.943Z,5.40
2019-03-12T11:13:31.922Z,3.60
2019-03-12T11:14:31.952Z,2.30
2019-03-12T11:15:31.908Z,3.40
2019-03-12T11:16:31.898Z,2.90
2019-03-12T11:17:31.881Z,4.50
2019-03-12T11:18:31.908Z,6.50
2019-03-12T11:19:31.916Z,5.90
2019-03-12T11:20:31.849Z,5.90
2019-03-12T11:21:31.839Z,4.80
2019-03-12T11:22:31.832Z,5.40
2019-03-12T11:23:31.890Z,4.70
2019-03-12T11:24:31.807Z,4.50
2019-03-12T11:25:31.792Z,6.70
2019-03-12T11:26:31.799Z,8.00
2019-03-12T11:27:31.771Z,7.10
2019-03-12T11:28:31.766Z,3.80
2019-03-12T11:29:31.798Z,4.30
2019-03-12T11:30:31.736Z,3.70
2019-03-12T11:31:31.739Z,4.30
2019-03-12T11:32:31.718Z,4.40
2019-03-12T11:33:31.712Z,3.70
2019-03-12T11:34:31.749Z,3.50
2019-03-12T11:35:38.781Z,2.80
2019-03-12T11:36:32.672Z,5.80
2019-03-12T11:37:31.675Z,5.20
2019-03-12T11:38:31.692Z,3.70
2019-03-12T11:39:31.686Z,5.20
2019-03-12T11:40:32.760Z,2.80
2019-03-12T11:41:31.704Z,2.70
2019-03-12T11:42:31.605Z,2.60
2019-03-12T11:43:31.758Z,3.50
2019-03-12T11:44:31.602Z,3.20
2019-03-12T11:45:36.793Z,8.60
2019-03-12T11:46:41.584Z,4.20
2019-03-12T11:47:32.560Z,5.10
2019-03-12T11:48:31.537Z,4.20
2019-03-12T11:49:32.240Z,4.20
2019-03-12T11:50:31.641Z,2.60
2019-03-12T11:51:31.608Z,2.60
2019-03-12T11:52:31.499Z,2.60
2019-03-12T11:53:31.484Z,3.20
2019-03-12T11:54:31.479Z,1.90
2019-03-12T11:55:31.582Z,3.30
2019-03-12T11:56:31.451Z,5.60
2019-03-12T11:57:31.517Z,2.80
2019-03-12T11:58:31.433Z,2.20
2019-03-12T11:59:31.420Z,1.80
2019-03-12T12:00:31.505Z,2.70
2019-03-12T12:01:31.554Z,4.30
2019-03-12T12:02:31.386Z,4.30
2019-03-12T12:03:31.399Z,8.30
2019-03-12T12:04:31.365Z,3.80
2019-03-12T12:05:31.358Z,3.90
2019-03-12T12:06:31.361Z,2.80
2019-03-12T12:07:31.361Z,3.10
2019-03-12T12:08:31.318Z,3.40
2019-03-12T12:09:31.310Z,3.40
2019-03-12T12:10:31.299Z,1.20
2019-03-12T12:11:31.324Z,1.70
2019-03-12T12:12:31.272Z,3.70
2019-03-12T12:13:31.268Z,2.30
2019-03-12T12:14:31.311Z,3.40
2019-03-12T12:15:31.248Z,2.90
2019-03-12T12:16:31.229Z,3.00
2019-03-12T12:17:31.224Z,4.10
2019-03-12T12:18:31.216Z,2.80
2019-03-12T12:19:31.226Z,3.20
2019-03-12T12:20:31.207Z,3.00
2019-03-12T12:21:31.179Z,1.80
2019-03-12T12:22:31.163Z,3.70
2019-03-12T12:23:31.192Z,3.60
2019-03-12T12:24:31.146Z,3.00
2019-03-12T12:25:31.131Z,2.60
2019-03-12T12:26:31.137Z,3.00
2019-03-12T12:27:31.111Z,3.10
2019-03-12T12:28:31.101Z,3.60
2019-03-12T12:29:31.162Z,4.70
2019-03-12T12:30:31.080Z,2.30
2019-03-12T12:31:31.069Z,3.80
2019-03-12T12:32:31.054Z,2.40
2019-03-12T12:33:31.121Z,3.20
2019-03-12T12:34:31.034Z,2.50
2019-03-12T12:35:31.024Z,3.30
2019-03-12T12:36:31.024Z,3.80
2019-03-12T12:37:31.106Z,2.80
2019-03-12T12:38:30.992Z,2.60
2019-03-12T12:39:31.053Z,4.00
2019-03-12T12:40:31.003Z,4.00
2019-03-12T12:41:30.963Z,3.60
2019-03-12T12:42:30.943Z,3.10
2019-03-12T12:43:30.977Z,3.30
2019-03-12T12:44:30.926Z,4.50
2019-03-12T12:45:30.990Z,3.90
2019-03-12T12:46:30.926Z,4.50
2019-03-12T12:47:30.897Z,3.60
2019-03-12T12:48:30.879Z,3.70
2019-03-12T12:49:30.871Z,3.70
2019-03-12T12:50:30.858Z,3.90
2019-03-12T12:51:30.907Z,3.10
2019-03-12T12:52:30.837Z,3.40
2019-03-12T12:53:30.824Z,2.90
2019-03-12T12:54:30.818Z,5.50
2019-03-12T12:55:30.815Z,3.50
2019-03-12T12:56:30.799Z,3.70
2019-03-12T12:57:31.746Z,3.30
2019-03-12T12:58:30.773Z,2.00
2019-03-12T12:59:30.768Z,3.70